sensor_id;sensor_type;location;lat;lon;timestamp;P1;durP1;ratioP1;P2;durP2;ratioP2
29728;SDS011;20055;51.498;11.960;2022-07-24T00:02:16;9.25;;;4.75;;
29728;SDS011;20055;51.498;11.960;2022-07-24T00:04:43;11.48;;;4.40;;
29728;SDS011;20055;51.498;11.960;2022-07-24T00:07:09;7.97;;;4.65;;
29728;SDS011;20055;51.498;11.960;2022-07-24T00:09:35;8.82;;;4.50;;
29728;SDS011;20055;51.498;11.960;2022-07-24T00:12:01;9.55;;;4.53;;
29728;SDS011;20055;51.498;11.960;2022-07-24T00:14:28;8.32;;;4.45;;
29728;SDS011;20055;51.498;11.960;2022-07-24T00:16:54;4.63;;;3.72;;
29728;SDS011;20055;51.498;11.960;2022-07-24T00:19:21;11.27;;;4.03;;
29728;SDS011;20055;51.498;11.960;2022-07-24T00:21:47;7.97;;;4.22;;
29728;SDS011;20055;51.498;11.960;2022-07-24T00:24:13;5.72;;;3.83;;
29728;SDS011;20055;51.498;11.960;2022-07-24T00:26:39;5.03;;;3.40;;
29728;SDS011;20055;51.498;11.960;2022-07-24T00:29:06;10.23;;;3.92;;
29728;SDS011;20055;51.498;11.960;2022-07-24T00:31:32;8.65;;;4.47;;
29728;SDS011;20055;51.498;11.960;2022-07-24T00:33:58;8.98;;;4.40;;
29728;SDS011;20055;51.498;11.960;2022-07-24T00:36:25;12.77;;;5.45;;
29728;SDS011;20055;51.498;11.960;2022-07-24T00:38:51;9.63;;;4.03;;
29728;SDS011;20055;51.498;11.960;2022-07-24T00:41:17;5.43;;;3.55;;
29728;SDS011;20055;51.498;11.960;2022-07-24T00:46:31;6.90;;;3.95;;
29728;SDS011;20055;51.498;11.960;2022-07-24T00:48:58;5.32;;;3.60;;
29728;SDS011;20055;51.498;11.960;2022-07-24T00:51:25;8.65;;;4.20;;
29728;SDS011;20055;51.498;11.960;2022-07-24T00:53:51;6.05;;;3.60;;
29728;SDS011;20055;51.498;11.960;2022-07-24T00:56:18;5.88;;;3.65;;
29728;SDS011;20055;51.498;11.960;2022-07-24T00:58:45;7.38;;;3.88;;
29728;SDS011;20055;51.498;11.960;2022-07-24T01:01:13;7.22;;;4.30;;
29728;SDS011;20055;51.498;11.960;2022-07-24T01:03:40;7.25;;;4.25;;
29728;SDS011;20055;51.498;11.960;2022-07-24T01:06:06;8.52;;;4.38;;
29728;SDS011;20055;51.498;11.960;2022-07-24T01:08:34;7.15;;;4.47;;
29728;SDS011;20055;51.498;11.960;2022-07-24T01:11:01;8.23;;;4.05;;
29728;SDS011;20055;51.498;11.960;2022-07-24T01:13:29;15.45;;;4.13;;
29728;SDS011;20055;51.498;11.960;2022-07-24T01:15:57;4.63;;;3.65;;
29728;SDS011;20055;51.498;11.960;2022-07-24T01:18:23;9.98;;;3.78;;
29728;SDS011;20055;51.498;11.960;2022-07-24T01:20:50;5.30;;;3.47;;
29728;SDS011;20055;51.498;11.960;2022-07-24T01:23:16;7.53;;;3.55;;
29728;SDS011;20055;51.498;11.960;2022-07-24T01:25:42;8.48;;;3.80;;
29728;SDS011;20055;51.498;11.960;2022-07-24T01:28:09;6.97;;;4.03;;
29728;SDS011;20055;51.498;11.960;2022-07-24T01:30:35;5.15;;;3.97;;
29728;SDS011;20055;51.498;11.960;2022-07-24T01:33:01;11.10;;;4.45;;
29728;SDS011;20055;51.498;11.960;2022-07-24T01:35:28;9.82;;;4.00;;
29728;SDS011;20055;51.498;11.960;2022-07-24T01:37:54;9.82;;;4.00;;
29728;SDS011;20055;51.498;11.960;2022-07-24T01:40:20;7.43;;;3.92;;
29728;SDS011;20055;51.498;11.960;2022-07-24T01:42:47;6.97;;;3.78;;
29728;SDS011;20055;51.498;11.960;2022-07-24T01:45:14;7.72;;;3.83;;
29728;SDS011;20055;51.498;11.960;2022-07-24T01:47:41;4.40;;;3.70;;
29728;SDS011;20055;51.498;11.960;2022-07-24T01:50:09;6.90;;;4.25;;
29728;SDS011;20055;51.498;11.960;2022-07-24T01:52:36;13.68;;;4.75;;
29728;SDS011;20055;51.498;11.960;2022-07-24T01:55:03;8.05;;;4.20;;
29728;SDS011;20055;51.498;11.960;2022-07-24T01:57:30;11.38;;;4.95;;
29728;SDS011;20055;51.498;11.960;2022-07-24T01:59:58;11.57;;;3.95;;
29728;SDS011;20055;51.498;11.960;2022-07-24T02:02:25;10.55;;;4.97;;
29728;SDS011;20055;51.498;11.960;2022-07-24T02:04:52;6.07;;;3.90;;
29728;SDS011;20055;51.498;11.960;2022-07-24T02:07:19;7.05;;;4.18;;
29728;SDS011;20055;51.498;11.960;2022-07-24T02:09:45;7.60;;;4.18;;
29728;SDS011;20055;51.498;11.960;2022-07-24T02:12:11;11.75;;;4.82;;
29728;SDS011;20055;51.498;11.960;2022-07-24T02:14:37;8.02;;;4.70;;
29728;SDS011;20055;51.498;11.960;2022-07-24T02:17:04;9.80;;;4.53;;
29728;SDS011;20055;51.498;11.960;2022-07-24T02:19:30;10.52;;;5.05;;
29728;SDS011;20055;51.498;11.960;2022-07-24T02:21:57;11.05;;;5.13;;
29728;SDS011;20055;51.498;11.960;2022-07-24T02:24:23;10.25;;;5.43;;
29728;SDS011;20055;51.498;11.960;2022-07-24T02:26:49;12.80;;;5.68;;
29728;SDS011;20055;51.498;11.960;2022-07-24T02:29:15;6.30;;;4.25;;
29728;SDS011;20055;51.498;11.960;2022-07-24T02:31:42;6.45;;;4.55;;
29728;SDS011;20055;51.498;11.960;2022-07-24T02:34:08;11.02;;;5.00;;
29728;SDS011;20055;51.498;11.960;2022-07-24T02:36:36;5.72;;;4.10;;
29728;SDS011;20055;51.498;11.960;2022-07-24T02:39:02;5.30;;;3.95;;
29728;SDS011;20055;51.498;11.960;2022-07-24T02:41:29;5.43;;;3.90;;
29728;SDS011;20055;51.498;11.960;2022-07-24T02:43:55;8.07;;;4.20;;
29728;SDS011;20055;51.498;11.960;2022-07-24T02:46:22;13.40;;;6.05;;
29728;SDS011;20055;51.498;11.960;2022-07-24T02:48:48;10.48;;;4.15;;
29728;SDS011;20055;51.498;11.960;2022-07-24T02:51:14;5.93;;;4.05;;
29728;SDS011;20055;51.498;11.960;2022-07-24T02:53:40;8.32;;;5.55;;
29728;SDS011;20055;51.498;11.960;2022-07-24T02:56:07;9.77;;;4.50;;
29728;SDS011;20055;51.498;11.960;2022-07-24T02:58:34;5.60;;;4.00;;
29728;SDS011;20055;51.498;11.960;2022-07-24T03:01:01;6.95;;;4.30;;
29728;SDS011;20055;51.498;11.960;2022-07-24T03:03:27;14.75;;;4.68;;
29728;SDS011;20055;51.498;11.960;2022-07-24T03:05:53;8.20;;;4.90;;
29728;SDS011;20055;51.498;11.960;2022-07-24T03:08:20;15.77;;;4.55;;
29728;SDS011;20055;51.498;11.960;2022-07-24T03:10:46;6.15;;;4.70;;
29728;SDS011;20055;51.498;11.960;2022-07-24T03:13:13;11.10;;;4.40;;
29728;SDS011;20055;51.498;11.960;2022-07-24T03:15:39;6.75;;;4.30;;
29728;SDS011;20055;51.498;11.960;2022-07-24T03:18:05;10.13;;;4.40;;
29728;SDS011;20055;51.498;11.960;2022-07-24T03:20:31;5.90;;;4.57;;
29728;SDS011;20055;51.498;11.960;2022-07-24T03:22:58;8.68;;;4.13;;
29728;SDS011;20055;51.498;11.960;2022-07-24T03:25:25;5.68;;;3.90;;
29728;SDS011;20055;51.498;11.960;2022-07-24T03:27:51;8.68;;;4.55;;
29728;SDS011;20055;51.498;11.960;2022-07-24T03:30:18;8.88;;;4.10;;
29728;SDS011;20055;51.498;11.960;2022-07-24T03:32:45;11.05;;;4.82;;
29728;SDS011;20055;51.498;11.960;2022-07-24T03:35:13;12.60;;;5.07;;
29728;SDS011;20055;51.498;11.960;2022-07-24T03:37:39;7.10;;;4.32;;
29728;SDS011;20055;51.498;11.960;2022-07-24T03:40:06;6.97;;;4.25;;
29728;SDS011;20055;51.498;11.960;2022-07-24T03:42:33;7.10;;;5.10;;
29728;SDS011;20055;51.498;11.960;2022-07-24T03:44:59;6.38;;;5.03;;
29728;SDS011;20055;51.498;11.960;2022-07-24T03:47:26;6.30;;;4.30;;
29728;SDS011;20055;51.498;11.960;2022-07-24T03:49:52;13.95;;;4.88;;
29728;SDS011;20055;51.498;11.960;2022-07-24T03:52:18;11.25;;;4.55;;
29728;SDS011;20055;51.498;11.960;2022-07-24T03:54:45;10.50;;;4.57;;
29728;SDS011;20055;51.498;11.960;2022-07-24T03:57:11;7.50;;;4.30;;
29728;SDS011;20055;51.498;11.960;2022-07-24T03:59:37;8.18;;;5.47;;
29728;SDS011;20055;51.498;11.960;2022-07-24T04:02:04;4.97;;;4.32;;
29728;SDS011;20055;51.498;11.960;2022-07-24T04:04:30;11.00;;;5.93;;
29728;SDS011;20055;51.498;11.960;2022-07-24T04:06:56;8.75;;;4.75;;
29728;SDS011;20055;51.498;11.960;2022-07-24T04:09:22;5.28;;;4.47;;
29728;SDS011;20055;51.498;11.960;2022-07-24T04:11:49;9.10;;;4.72;;
29728;SDS011;20055;51.498;11.960;2022-07-24T04:14:15;7.82;;;4.90;;
29728;SDS011;20055;51.498;11.960;2022-07-24T04:16:42;8.32;;;5.22;;
29728;SDS011;20055;51.498;11.960;2022-07-24T04:19:09;8.57;;;5.03;;
29728;SDS011;20055;51.498;11.960;2022-07-24T04:21:35;6.30;;;4.78;;
29728;SDS011;20055;51.498;11.960;2022-07-24T04:24:02;8.85;;;5.13;;
29728;SDS011;20055;51.498;11.960;2022-07-24T04:26:28;9.07;;;5.22;;
29728;SDS011;20055;51.498;11.960;2022-07-24T04:28:54;8.98;;;4.53;;
29728;SDS011;20055;51.498;11.960;2022-07-24T04:31:20;10.60;;;4.68;;
29728;SDS011;20055;51.498;11.960;2022-07-24T04:33:47;10.35;;;5.18;;
29728;SDS011;20055;51.498;11.960;2022-07-24T04:36:13;10.68;;;5.03;;
29728;SDS011;20055;51.498;11.960;2022-07-24T04:38:39;6.60;;;4.15;;
29728;SDS011;20055;51.498;11.960;2022-07-24T04:41:06;12.45;;;3.80;;
29728;SDS011;20055;51.498;11.960;2022-07-24T04:43:32;4.45;;;3.17;;
29728;SDS011;20055;51.498;11.960;2022-07-24T04:45:58;8.23;;;3.80;;
29728;SDS011;20055;51.498;11.960;2022-07-24T04:48:25;5.05;;;3.47;;
29728;SDS011;20055;51.498;11.960;2022-07-24T04:50:51;7.03;;;3.13;;
29728;SDS011;20055;51.498;11.960;2022-07-24T04:53:17;5.60;;;3.20;;
29728;SDS011;20055;51.498;11.960;2022-07-24T04:55:44;3.65;;;2.70;;
29728;SDS011;20055;51.498;11.960;2022-07-24T04:58:10;4.38;;;3.03;;
29728;SDS011;20055;51.498;11.960;2022-07-24T05:00:36;7.53;;;3.13;;
29728;SDS011;20055;51.498;11.960;2022-07-24T05:03:03;7.38;;;3.22;;
29728;SDS011;20055;51.498;11.960;2022-07-24T05:05:29;4.15;;;2.80;;
29728;SDS011;20055;51.498;11.960;2022-07-24T05:07:55;3.50;;;2.72;;
29728;SDS011;20055;51.498;11.960;2022-07-24T05:10:21;6.15;;;3.00;;
29728;SDS011;20055;51.498;11.960;2022-07-24T05:12:48;4.32;;;3.10;;
29728;SDS011;20055;51.498;11.960;2022-07-24T05:15:14;3.72;;;2.70;;
29728;SDS011;20055;51.498;11.960;2022-07-24T05:17:40;3.50;;;3.20;;
29728;SDS011;20055;51.498;11.960;2022-07-24T05:20:07;6.50;;;3.17;;
29728;SDS011;20055;51.498;11.960;2022-07-24T05:22:33;3.20;;;2.90;;
29728;SDS011;20055;51.498;11.960;2022-07-24T05:25:00;3.75;;;3.35;;
29728;SDS011;20055;51.498;11.960;2022-07-24T05:27:26;4.47;;;2.38;;
29728;SDS011;20055;51.498;11.960;2022-07-24T05:29:52;3.95;;;2.95;;
29728;SDS011;20055;51.498;11.960;2022-07-24T05:32:18;4.95;;;3.35;;
29728;SDS011;20055;51.498;11.960;2022-07-24T05:34:45;7.00;;;3.40;;
29728;SDS011;20055;51.498;11.960;2022-07-24T05:37:11;5.57;;;2.95;;
29728;SDS011;20055;51.498;11.960;2022-07-24T05:39:37;5.35;;;3.42;;
29728;SDS011;20055;51.498;11.960;2022-07-24T05:42:03;5.18;;;3.03;;
29728;SDS011;20055;51.498;11.960;2022-07-24T05:44:30;5.05;;;3.22;;
29728;SDS011;20055;51.498;11.960;2022-07-24T05:46:56;3.92;;;2.67;;
29728;SDS011;20055;51.498;11.960;2022-07-24T05:49:22;8.13;;;3.25;;
29728;SDS011;20055;51.498;11.960;2022-07-24T05:51:49;8.25;;;3.30;;
29728;SDS011;20055;51.498;11.960;2022-07-24T05:54:15;7.28;;;2.45;;
29728;SDS011;20055;51.498;11.960;2022-07-24T05:56:41;7.43;;;3.08;;
29728;SDS011;20055;51.498;11.960;2022-07-24T05:59:07;7.03;;;2.95;;
29728;SDS011;20055;51.498;11.960;2022-07-24T06:01:34;2.97;;;2.65;;
29728;SDS011;20055;51.498;11.960;2022-07-24T06:04:00;4.13;;;2.90;;
29728;SDS011;20055;51.498;11.960;2022-07-24T06:06:27;6.97;;;3.10;;
29728;SDS011;20055;51.498;11.960;2022-07-24T06:08:53;7.90;;;3.15;;
29728;SDS011;20055;51.498;11.960;2022-07-24T06:11:20;8.82;;;3.25;;
29728;SDS011;20055;51.498;11.960;2022-07-24T06:13:48;4.53;;;2.65;;
29728;SDS011;20055;51.498;11.960;2022-07-24T06:16:15;4.28;;;2.45;;
29728;SDS011;20055;51.498;11.960;2022-07-24T06:18:41;3.85;;;2.72;;
29728;SDS011;20055;51.498;11.960;2022-07-24T06:21:07;6.25;;;2.83;;
29728;SDS011;20055;51.498;11.960;2022-07-24T06:23:33;4.60;;;2.40;;
29728;SDS011;20055;51.498;11.960;2022-07-24T06:26:00;8.75;;;3.15;;
29728;SDS011;20055;51.498;11.960;2022-07-24T06:28:26;6.93;;;2.42;;
29728;SDS011;20055;51.498;11.960;2022-07-24T06:30:52;11.30;;;2.58;;
29728;SDS011;20055;51.498;11.960;2022-07-24T06:33:20;9.38;;;3.13;;
29728;SDS011;20055;51.498;11.960;2022-07-24T06:35:46;8.23;;;3.03;;
29728;SDS011;20055;51.498;11.960;2022-07-24T06:38:12;9.73;;;2.78;;
29728;SDS011;20055;51.498;11.960;2022-07-24T06:40:39;3.72;;;2.90;;
29728;SDS011;20055;51.498;11.960;2022-07-24T06:43:05;12.73;;;2.78;;
29728;SDS011;20055;51.498;11.960;2022-07-24T06:45:31;5.15;;;2.45;;
29728;SDS011;20055;51.498;11.960;2022-07-24T06:47:59;3.50;;;3.00;;
29728;SDS011;20055;51.498;11.960;2022-07-24T06:50:26;4.50;;;3.10;;
29728;SDS011;20055;51.498;11.960;2022-07-24T06:52:52;6.25;;;2.40;;
29728;SDS011;20055;51.498;11.960;2022-07-24T06:55:19;6.00;;;3.03;;
29728;SDS011;20055;51.498;11.960;2022-07-24T06:57:45;5.22;;;2.65;;
29728;SDS011;20055;51.498;11.960;2022-07-24T07:00:11;4.78;;;2.88;;
29728;SDS011;20055;51.498;11.960;2022-07-24T07:02:38;2.63;;;2.35;;
29728;SDS011;20055;51.498;11.960;2022-07-24T07:05:06;9.27;;;2.70;;
29728;SDS011;20055;51.498;11.960;2022-07-24T07:07:34;6.22;;;2.58;;
29728;SDS011;20055;51.498;11.960;2022-07-24T07:10:01;5.43;;;2.47;;
29728;SDS011;20055;51.498;11.960;2022-07-24T07:12:29;4.68;;;2.67;;
29728;SDS011;20055;51.498;11.960;2022-07-24T07:14:55;7.35;;;2.53;;
29728;SDS011;20055;51.498;11.960;2022-07-24T07:17:23;6.90;;;3.00;;
29728;SDS011;20055;51.498;11.960;2022-07-24T07:19:50;3.72;;;2.33;;
29728;SDS011;20055;51.498;11.960;2022-07-24T07:22:16;5.07;;;2.83;;
29728;SDS011;20055;51.498;11.960;2022-07-24T07:24:42;6.50;;;2.28;;
29728;SDS011;20055;51.498;11.960;2022-07-24T07:27:08;4.53;;;2.20;;
29728;SDS011;20055;51.498;11.960;2022-07-24T07:29:35;9.13;;;2.85;;
29728;SDS011;20055;51.498;11.960;2022-07-24T07:32:01;8.00;;;2.63;;
29728;SDS011;20055;51.498;11.960;2022-07-24T07:34:27;2.97;;;2.30;;
29728;SDS011;20055;51.498;11.960;2022-07-24T07:36:53;3.58;;;2.33;;
29728;SDS011;20055;51.498;11.960;2022-07-24T07:39:20;6.93;;;2.72;;
29728;SDS011;20055;51.498;11.960;2022-07-24T07:41:46;7.72;;;2.70;;
29728;SDS011;20055;51.498;11.960;2022-07-24T07:44:12;7.88;;;2.60;;
29728;SDS011;20055;51.498;11.960;2022-07-24T07:46:39;5.97;;;2.50;;
29728;SDS011;20055;51.498;11.960;2022-07-24T07:49:05;4.35;;;2.40;;
29728;SDS011;20055;51.498;11.960;2022-07-24T07:51:31;2.92;;;2.35;;
29728;SDS011;20055;51.498;11.960;2022-07-24T07:53:57;9.43;;;2.53;;
29728;SDS011;20055;51.498;11.960;2022-07-24T07:56:24;3.28;;;2.25;;
29728;SDS011;20055;51.498;11.960;2022-07-24T07:58:50;5.43;;;2.30;;
29728;SDS011;20055;51.498;11.960;2022-07-24T08:01:16;8.60;;;2.60;;
29728;SDS011;20055;51.498;11.960;2022-07-24T08:03:42;4.13;;;2.20;;
29728;SDS011;20055;51.498;11.960;2022-07-24T08:06:09;2.67;;;2.13;;
29728;SDS011;20055;51.498;11.960;2022-07-24T08:08:35;4.75;;;2.60;;
29728;SDS011;20055;51.498;11.960;2022-07-24T08:11:01;9.75;;;2.40;;
29728;SDS011;20055;51.498;11.960;2022-07-24T08:13:28;8.15;;;2.17;;
29728;SDS011;20055;51.498;11.960;2022-07-24T08:15:54;5.80;;;2.58;;
29728;SDS011;20055;51.498;11.960;2022-07-24T08:18:20;4.18;;;2.35;;
29728;SDS011;20055;51.498;11.960;2022-07-24T08:20:46;5.03;;;2.40;;
29728;SDS011;20055;51.498;11.960;2022-07-24T08:23:13;4.13;;;2.40;;
29728;SDS011;20055;51.498;11.960;2022-07-24T08:25:39;8.65;;;2.20;;
29728;SDS011;20055;51.498;11.960;2022-07-24T08:28:07;3.42;;;2.00;;
29728;SDS011;20055;51.498;11.960;2022-07-24T08:30:33;5.65;;;1.90;;
29728;SDS011;20055;51.498;11.960;2022-07-24T08:32:59;5.43;;;2.33;;
29728;SDS011;20055;51.498;11.960;2022-07-24T08:35:25;6.63;;;2.30;;
29728;SDS011;20055;51.498;11.960;2022-07-24T08:37:52;7.93;;;2.25;;
29728;SDS011;20055;51.498;11.960;2022-07-24T08:40:18;5.28;;;2.47;;
29728;SDS011;20055;51.498;11.960;2022-07-24T08:42:44;8.02;;;2.03;;
29728;SDS011;20055;51.498;11.960;2022-07-24T08:45:11;3.42;;;2.42;;
29728;SDS011;20055;51.498;11.960;2022-07-24T08:47:38;4.85;;;2.20;;
29728;SDS011;20055;51.498;11.960;2022-07-24T08:50:06;2.70;;;2.42;;
29728;SDS011;20055;51.498;11.960;2022-07-24T08:52:33;6.55;;;2.78;;
29728;SDS011;20055;51.498;11.960;2022-07-24T08:55:01;2.95;;;2.38;;
29728;SDS011;20055;51.498;11.960;2022-07-24T08:57:28;3.67;;;2.33;;
29728;SDS011;20055;51.498;11.960;2022-07-24T08:59:54;4.05;;;2.25;;
29728;SDS011;20055;51.498;11.960;2022-07-24T09:02:20;3.58;;;2.20;;
29728;SDS011;20055;51.498;11.960;2022-07-24T09:04:47;6.18;;;2.50;;
29728;SDS011;20055;51.498;11.960;2022-07-24T09:07:16;3.72;;;2.40;;
29728;SDS011;20055;51.498;11.960;2022-07-24T09:09:57;2.45;;;2.00;;
29728;SDS011;20055;51.498;11.960;2022-07-24T09:12:38;3.58;;;2.60;;
29728;SDS011;20055;51.498;11.960;2022-07-24T09:15:11;4.57;;;2.40;;
29728;SDS011;20055;51.498;11.960;2022-07-24T09:17:46;8.32;;;2.50;;
29728;SDS011;20055;51.498;11.960;2022-07-24T09:20:14;8.98;;;2.42;;
29728;SDS011;20055;51.498;11.960;2022-07-24T09:22:41;6.97;;;2.20;;
29728;SDS011;20055;51.498;11.960;2022-07-24T09:25:15;6.25;;;2.22;;
29728;SDS011;20055;51.498;11.960;2022-07-24T09:32:57;4.05;;;1.90;;
29728;SDS011;20055;51.498;11.960;2022-07-24T09:35:53;3.75;;;2.30;;
29728;SDS011;20055;51.498;11.960;2022-07-24T09:38:23;2.95;;;2.28;;
29728;SDS011;20055;51.498;11.960;2022-07-24T09:40:52;7.15;;;2.05;;
29728;SDS011;20055;51.498;11.960;2022-07-24T09:43:30;3.38;;;2.20;;
29728;SDS011;20055;51.498;11.960;2022-07-24T09:48:28;7.15;;;2.55;;
29728;SDS011;20055;51.498;11.960;2022-07-24T09:51:17;6.93;;;2.38;;
29728;SDS011;20055;51.498;11.960;2022-07-24T09:53:44;11.00;;;2.70;;
29728;SDS011;20055;51.498;11.960;2022-07-24T09:56:13;5.88;;;2.58;;
29728;SDS011;20055;51.498;11.960;2022-07-24T09:58:47;9.40;;;2.83;;
29728;SDS011;20055;51.498;11.960;2022-07-24T10:01:18;4.53;;;3.13;;
29728;SDS011;20055;51.498;11.960;2022-07-24T10:03:47;7.43;;;2.30;;
29728;SDS011;20055;51.498;11.960;2022-07-24T10:06:15;8.48;;;2.80;;
29728;SDS011;20055;51.498;11.960;2022-07-24T10:08:43;5.80;;;2.40;;
29728;SDS011;20055;51.498;11.960;2022-07-24T10:11:11;6.47;;;2.53;;
29728;SDS011;20055;51.498;11.960;2022-07-24T10:13:39;5.35;;;2.63;;
29728;SDS011;20055;51.498;11.960;2022-07-24T10:16:15;8.25;;;3.10;;
29728;SDS011;20055;51.498;11.960;2022-07-24T10:18:55;4.20;;;2.50;;
29728;SDS011;20055;51.498;11.960;2022-07-24T10:27:02;3.15;;;2.35;;
29728;SDS011;20055;51.498;11.960;2022-07-24T10:29:27;7.68;;;2.33;;
29728;SDS011;20055;51.498;11.960;2022-07-24T10:31:56;8.57;;;2.50;;
29728;SDS011;20055;51.498;11.960;2022-07-24T10:39:43;4.20;;;2.75;;
29728;SDS011;20055;51.498;11.960;2022-07-24T10:45:30;3.65;;;2.28;;
29728;SDS011;20055;51.498;11.960;2022-07-24T10:47:58;3.85;;;2.60;;
29728;SDS011;20055;51.498;11.960;2022-07-24T10:53:23;6.90;;;2.42;;
29728;SDS011;20055;51.498;11.960;2022-07-24T11:01:37;3.65;;;2.63;;
29728;SDS011;20055;51.498;11.960;2022-07-24T11:09:14;8.65;;;2.60;;
29728;SDS011;20055;51.498;11.960;2022-07-24T11:14:24;4.95;;;2.50;;
29728;SDS011;20055;51.498;11.960;2022-07-24T11:16:50;6.22;;;2.85;;
29728;SDS011;20055;51.498;11.960;2022-07-24T11:21:44;6.70;;;2.50;;
29728;SDS011;20055;51.498;11.960;2022-07-24T11:26:54;4.97;;;2.70;;
29728;SDS011;20055;51.498;11.960;2022-07-24T11:29:27;7.75;;;3.55;;
29728;SDS011;20055;51.498;11.960;2022-07-24T11:31:57;3.45;;;2.60;;
29728;SDS011;20055;51.498;11.960;2022-07-24T11:34:48;5.93;;;2.35;;
29728;SDS011;20055;51.498;11.960;2022-07-24T11:37:15;2.90;;;2.22;;
29728;SDS011;20055;51.498;11.960;2022-07-24T11:39:43;3.90;;;2.47;;
29728;SDS011;20055;51.498;11.960;2022-07-24T11:42:12;4.82;;;2.60;;
29728;SDS011;20055;51.498;11.960;2022-07-24T11:44:44;4.53;;;2.70;;
29728;SDS011;20055;51.498;11.960;2022-07-24T11:47:13;5.18;;;2.63;;
29728;SDS011;20055;51.498;11.960;2022-07-24T11:49:48;4.38;;;2.90;;
29728;SDS011;20055;51.498;11.960;2022-07-24T11:52:27;3.43;;;2.80;;
29728;SDS011;20055;51.498;11.960;2022-07-24T11:55:03;6.18;;;2.85;;
29728;SDS011;20055;51.498;11.960;2022-07-24T11:57:39;3.65;;;2.95;;
29728;SDS011;20055;51.498;11.960;2022-07-24T12:00:17;6.53;;;3.35;;
29728;SDS011;20055;51.498;11.960;2022-07-24T12:02:47;6.10;;;3.10;;
29728;SDS011;20055;51.498;11.960;2022-07-24T12:05:29;5.35;;;3.00;;
29728;SDS011;20055;51.498;11.960;2022-07-24T12:08:00;6.70;;;2.88;;
29728;SDS011;20055;51.498;11.960;2022-07-24T12:10:28;6.47;;;3.60;;
29728;SDS011;20055;51.498;11.960;2022-07-24T12:12:55;5.57;;;2.95;;
29728;SDS011;20055;51.498;11.960;2022-07-24T12:15:24;6.07;;;2.78;;
29728;SDS011;20055;51.498;11.960;2022-07-24T12:18:02;3.19;;;2.83;;
29728;SDS011;20055;51.498;11.960;2022-07-24T12:20:36;7.07;;;2.88;;
29728;SDS011;20055;51.498;11.960;2022-07-24T12:23:13;6.47;;;2.75;;
29728;SDS011;20055;51.498;11.960;2022-07-24T12:25:41;10.05;;;3.40;;
29728;SDS011;20055;51.498;11.960;2022-07-24T12:28:19;4.10;;;2.90;;
29728;SDS011;20055;51.498;11.960;2022-07-24T12:30:49;4.80;;;2.70;;
29728;SDS011;20055;51.498;11.960;2022-07-24T12:38:35;3.42;;;3.13;;
29728;SDS011;20055;51.498;11.960;2022-07-24T12:41:10;5.53;;;3.00;;
29728;SDS011;20055;51.498;11.960;2022-07-24T12:46:33;5.63;;;2.78;;
29728;SDS011;20055;51.498;11.960;2022-07-24T12:49:07;3.85;;;2.95;;
29728;SDS011;20055;51.498;11.960;2022-07-24T12:51:44;6.65;;;3.30;;
29728;SDS011;20055;51.498;11.960;2022-07-24T12:54:16;4.32;;;2.92;;
29728;SDS011;20055;51.498;11.960;2022-07-24T12:56:42;7.68;;;3.20;;
29728;SDS011;20055;51.498;11.960;2022-07-24T12:59:09;7.88;;;3.30;;
29728;SDS011;20055;51.498;11.960;2022-07-24T13:01:48;4.57;;;2.85;;
29728;SDS011;20055;51.498;11.960;2022-07-24T13:04:21;8.07;;;3.22;;
29728;SDS011;20055;51.498;11.960;2022-07-24T13:06:49;3.83;;;2.88;;
29728;SDS011;20055;51.498;11.960;2022-07-24T13:09:18;5.05;;;3.45;;
29728;SDS011;20055;51.498;11.960;2022-07-24T13:11:46;11.02;;;3.78;;
29728;SDS011;20055;51.498;11.960;2022-07-24T13:14:14;5.15;;;3.40;;
29728;SDS011;20055;51.498;11.960;2022-07-24T13:16:42;3.28;;;2.90;;
29728;SDS011;20055;51.498;11.960;2022-07-24T13:19:10;3.55;;;2.85;;
29728;SDS011;20055;51.498;11.960;2022-07-24T13:21:36;6.47;;;3.25;;
29728;SDS011;20055;51.498;11.960;2022-07-24T13:24:04;4.63;;;2.88;;
29728;SDS011;20055;51.498;11.960;2022-07-24T13:26:31;6.82;;;2.97;;
29728;SDS011;20055;51.498;11.960;2022-07-24T13:28:58;7.10;;;2.92;;
29728;SDS011;20055;51.498;11.960;2022-07-24T13:31:24;3.95;;;3.00;;
29728;SDS011;20055;51.498;11.960;2022-07-24T13:33:51;3.50;;;3.03;;
29728;SDS011;20055;51.498;11.960;2022-07-24T13:36:18;8.50;;;3.55;;
29728;SDS011;20055;51.498;11.960;2022-07-24T13:38:45;3.63;;;2.85;;
29728;SDS011;20055;51.498;11.960;2022-07-24T13:41:12;10.07;;;2.90;;
29728;SDS011;20055;51.498;11.960;2022-07-24T13:43:39;4.78;;;2.88;;
29728;SDS011;20055;51.498;11.960;2022-07-24T13:46:05;5.43;;;3.25;;
29728;SDS011;20055;51.498;11.960;2022-07-24T13:48:32;8.18;;;3.15;;
29728;SDS011;20055;51.498;11.960;2022-07-24T13:50:58;3.22;;;2.90;;
29728;SDS011;20055;51.498;11.960;2022-07-24T13:53:25;3.40;;;2.88;;
29728;SDS011;20055;51.498;11.960;2022-07-24T13:55:51;3.60;;;2.72;;
29728;SDS011;20055;51.498;11.960;2022-07-24T13:58:17;9.05;;;3.13;;
29728;SDS011;20055;51.498;11.960;2022-07-24T14:00:43;5.07;;;2.85;;
29728;SDS011;20055;51.498;11.960;2022-07-24T14:03:10;5.78;;;2.75;;
29728;SDS011;20055;51.498;11.960;2022-07-24T14:05:36;9.52;;;2.50;;
29728;SDS011;20055;51.498;11.960;2022-07-24T14:08:02;6.95;;;2.80;;
29728;SDS011;20055;51.498;11.960;2022-07-24T14:10:29;7.13;;;3.30;;
29728;SDS011;20055;51.498;11.960;2022-07-24T14:12:55;6.55;;;2.88;;
29728;SDS011;20055;51.498;11.960;2022-07-24T14:15:21;3.47;;;2.92;;
29728;SDS011;20055;51.498;11.960;2022-07-24T14:17:48;9.57;;;3.22;;
29728;SDS011;20055;51.498;11.960;2022-07-24T14:20:14;6.55;;;4.07;;
29728;SDS011;20055;51.498;11.960;2022-07-24T14:22:41;7.45;;;2.80;;
29728;SDS011;20055;51.498;11.960;2022-07-24T14:25:08;7.65;;;2.70;;
29728;SDS011;20055;51.498;11.960;2022-07-24T14:27:35;3.03;;;2.80;;
29728;SDS011;20055;51.498;11.960;2022-07-24T14:30:01;4.38;;;3.28;;
29728;SDS011;20055;51.498;11.960;2022-07-24T14:32:29;6.88;;;2.40;;
29728;SDS011;20055;51.498;11.960;2022-07-24T14:34:55;5.22;;;2.95;;
29728;SDS011;20055;51.498;11.960;2022-07-24T14:37:21;5.88;;;3.08;;
29728;SDS011;20055;51.498;11.960;2022-07-24T14:39:48;6.25;;;3.10;;
29728;SDS011;20055;51.498;11.960;2022-07-24T14:42:14;8.27;;;3.15;;
29728;SDS011;20055;51.498;11.960;2022-07-24T14:44:40;3.92;;;2.67;;
29728;SDS011;20055;51.498;11.960;2022-07-24T14:47:06;4.97;;;2.67;;
29728;SDS011;20055;51.498;11.960;2022-07-24T14:49:33;9.52;;;3.53;;
29728;SDS011;20055;51.498;11.960;2022-07-24T14:52:00;2.90;;;2.53;;
29728;SDS011;20055;51.498;11.960;2022-07-24T14:54:26;8.48;;;2.88;;
29728;SDS011;20055;51.498;11.960;2022-07-24T14:56:52;3.33;;;2.67;;
29728;SDS011;20055;51.498;11.960;2022-07-24T14:59:18;3.30;;;3.00;;
29728;SDS011;20055;51.498;11.960;2022-07-24T15:01:44;3.80;;;3.33;;
29728;SDS011;20055;51.498;11.960;2022-07-24T15:04:11;3.83;;;3.10;;
29728;SDS011;20055;51.498;11.960;2022-07-24T15:06:37;3.63;;;3.20;;
29728;SDS011;20055;51.498;11.960;2022-07-24T15:09:03;3.85;;;2.60;;
29728;SDS011;20055;51.498;11.960;2022-07-24T15:11:30;4.57;;;3.00;;
29728;SDS011;20055;51.498;11.960;2022-07-24T15:13:56;2.97;;;2.67;;
29728;SDS011;20055;51.498;11.960;2022-07-24T15:16:22;3.10;;;2.70;;
29728;SDS011;20055;51.498;11.960;2022-07-24T15:18:49;4.30;;;2.97;;
29728;SDS011;20055;51.498;11.960;2022-07-24T15:21:15;3.22;;;2.90;;
29728;SDS011;20055;51.498;11.960;2022-07-24T15:23:41;3.53;;;3.05;;
29728;SDS011;20055;51.498;11.960;2022-07-24T15:26:07;3.22;;;2.88;;
29728;SDS011;20055;51.498;11.960;2022-07-24T15:28:34;5.72;;;2.58;;
29728;SDS011;20055;51.498;11.960;2022-07-24T15:31:00;3.88;;;2.85;;